Time;durP1;ratioP1;P1;durP2;ratioP2;P2;SDS_P1;SDS_P2;PMS_P1;PMS_P2;Temp;Humidity;BMP_temperature;BMP_pressure;BME280_temperature;BME280_humidity;BME280_pressure;Samples;Min_cycle;Max_cycle;Signal;HPM_P1;HPM_P2
2023/12/11 00:00:58;;;;;;;48.00;30.88;;;;;;;;;;13108771;22;20405;-86
2023/12/11 00:06:01;;;;;;;51.35;30.08;;;;;;;;;;13109690;22;20424;-85
2023/12/11 00:11:04;;;;;;;51.80;31.13;;;;;;;;;;13110381;22;21024;-85
2023/12/11 00:16:08;;;;;;;48.83;31.30;;;;;;;;;;13109404;22;20363;-86
2023/12/11 00:21:10;;;;;;;53.13;32.57;;;;;;;;;;13109838;22;20375;-85
2023/12/11 00:26:13;;;;;;;51.45;31.52;;;;;;;;;;13131088;22;20726;-85
2023/12/11 00:31:17;;;;;;;46.13;29.03;;;;;;;;;;13107821;22;20360;-85
2023/12/11 00:36:19;;;;;;;47.90;29.67;;;;;;;;;;13109078;22;20367;-86
2023/12/11 00:41:21;;;;;;;43.25;29.10;;;;;;;;;;13131730;22;20384;-86
2023/12/11 00:46:25;;;;;;;45.60;29.23;;;;;;;;;;13107748;22;20692;-84
2023/12/11 00:51:28;;;;;;;43.37;28.73;;;;;;;;;;13109499;22;20416;-86
2023/12/11 00:56:30;;;;;;;39.28;27.60;;;;;;;;;;13107969;22;20405;-86
2023/12/11 01:01:34;;;;;;;43.43;29.40;;;;;;;;;;13108433;22;20360;-86
2023/12/11 01:06:36;;;;;;;43.00;29.55;;;;;;;;;;13108328;22;20363;-85
2023/12/11 01:11:39;;;;;;;43.53;30.08;;;;;;;;;;13108749;22;20422;-86
2023/12/11 01:16:43;;;;;;;44.03;30.00;;;;;;;;;;13109043;22;20472;-86
2023/12/11 01:21:45;;;;;;;43.67;28.43;;;;;;;;;;13109461;22;21173;-85
2023/12/11 01:26:48;;;;;;;46.85;30.88;;;;;;;;;;13108411;22;20386;-86
2023/12/11 01:31:52;;;;;;;47.63;30.50;;;;;;;;;;13102628;22;20874;-86
2023/12/11 01:36:54;;;;;;;46.20;30.00;;;;;;;;;;13101422;22;20363;-86
2023/12/11 01:41:58;;;;;;;44.35;29.65;;;;;;;;;;13123815;22;20371;-86
2023/12/11 01:47:02;;;;;;;44.13;28.27;;;;;;;;;;13122431;22;20826;-86
2023/12/11 01:52:07;;;;;;;42.92;28.50;;;;;;;;;;13105477;22;20379;-84
2023/12/11 01:57:09;;;;;;;43.08;26.33;;;;;;;;;;13107554;22;20393;-86
2023/12/11 02:02:13;;;;;;;40.07;28.00;;;;;;;;;;13107722;22;20359;-86
2023/12/11 02:07:15;;;;;;;40.27;27.37;;;;;;;;;;13106605;22;20452;-86
2023/12/11 02:12:18;;;;;;;43.88;28.85;;;;;;;;;;13108284;22;20352;-85
2023/12/11 02:17:22;;;;;;;43.53;29.02;;;;;;;;;;13107735;22;20367;-86
2023/12/11 02:22:25;;;;;;;41.75;27.05;;;;;;;;;;13129245;22;21054;-84
2023/12/11 02:27:29;;;;;;;45.08;28.55;;;;;;;;;;13107009;22;20405;-85
2023/12/11 02:32:32;;;;;;;41.88;29.35;;;;;;;;;;13106093;22;20359;-86
2023/12/11 02:37:34;;;;;;;43.77;30.20;;;;;;;;;;13107988;22;20355;-86
2023/12/11 02:42:38;;;;;;;46.67;31.90;;;;;;;;;;13107949;22;20363;-85
2023/12/11 02:47:40;;;;;;;47.75;31.52;;;;;;;;;;13107650;22;20371;-86
2023/12/11 02:52:43;;;;;;;44.87;29.10;;;;;;;;;;13128614;22;20405;-84
2023/12/11 02:57:46;;;;;;;46.40;31.13;;;;;;;;;;13107961;22;21125;-86
2023/12/11 03:02:49;;;;;;;45.77;29.97;;;;;;;;;;13105580;22;20401;-86
2023/12/11 03:07:51;;;;;;;44.10;29.00;;;;;;;;;;13110665;22;20371;-85
2023/12/11 03:12:55;;;;;;;44.63;28.92;;;;;;;;;;13110893;22;20431;-85
2023/12/11 03:17:58;;;;;;;40.33;27.20;;;;;;;;;;13111475;22;20397;-85
2023/12/11 03:23:00;;;;;;;38.22;26.33;;;;;;;;;;13110355;22;20412;-84
2023/12/11 03:28:04;;;;;;;40.67;27.23;;;;;;;;;;13109969;22;20452;-86
2023/12/11 03:33:06;;;;;;;42.20;28.50;;;;;;;;;;13110800;22;20371;-85
2023/12/11 03:38:09;;;;;;;41.47;27.08;;;;;;;;;;13110241;22;20593;-86
2023/12/11 03:43:13;;;;;;;39.90;26.57;;;;;;;;;;13110026;22;21019;-86
2023/12/11 03:48:15;;;;;;;40.27;26.23;;;;;;;;;;13110618;22;20409;-85
2023/12/11 03:53:18;;;;;;;40.35;27.27;;;;;;;;;;13109082;22;20367;-84
2023/12/11 03:58:21;;;;;;;43.50;28.70;;;;;;;;;;13111025;22;20888;-86
2023/12/11 04:03:24;;;;;;;43.40;29.10;;;;;;;;;;13108801;22;20359;-86
2023/12/11 04:08:26;;;;;;;41.05;27.27;;;;;;;;;;13132505;22;20427;-84
2023/12/11 04:13:31;;;;;;;41.63;27.17;;;;;;;;;;13131425;22;20413;-86
2023/12/11 04:18:34;;;;;;;40.47;27.13;;;;;;;;;;13109627;22;20359;-86
2023/12/11 04:23:36;;;;;;;40.50;26.23;;;;;;;;;;13109330;22;20355;-85
2023/12/11 04:28:40;;;;;;;39.85;25.95;;;;;;;;;;13109047;22;20380;-85
2023/12/11 04:33:42;;;;;;;39.35;25.17;;;;;;;;;;13108790;22;20355;-86
2023/12/11 04:38:45;;;;;;;34.00;22.17;;;;;;;;;;13131129;22;20753;-85
2023/12/11 04:43:48;;;;;;;33.05;21.70;;;;;;;;;;13109091;22;20669;-86
2023/12/11 04:48:51;;;;;;;31.52;20.92;;;;;;;;;;13108415;22;20842;-85
2023/12/11 04:53:53;;;;;;;32.45;20.67;;;;;;;;;;13107531;22;20355;-85
2023/12/11 04:58:57;;;;;;;34.33;20.60;;;;;;;;;;13108122;22;20702;-85
2023/12/11 05:03:59;;;;;;;29.33;19.00;;;;;;;;;;13108955;22;20363;-84
2023/12/11 05:09:02;;;;;;;29.60;19.55;;;;;;;;;;13108184;22;20440;-86
2023/12/11 05:14:06;;;;;;;30.58;20.02;;;;;;;;;;13108421;22;20896;-85
2023/12/11 05:19:08;;;;;;;34.92;21.20;;;;;;;;;;13107399;22;20397;-86
2023/12/11 05:24:11;;;;;;;31.87;20.67;;;;;;;;;;13130294;22;20687;-85
2023/12/11 05:29:14;;;;;;;35.28;22.08;;;;;;;;;;13107185;22;20379;-86
2023/12/11 05:34:17;;;;;;;35.78;21.80;;;;;;;;;;13108358;22;20359;-85
2023/12/11 05:39:19;;;;;;;30.52;20.75;;;;;;;;;;13108109;22;20406;-86
2023/12/11 05:44:23;;;;;;;33.35;21.65;;;;;;;;;;13107704;22;20404;-86
2023/12/11 05:49:25;;;;;;;34.08;22.27;;;;;;;;;;13108700;22;20440;-86
2023/12/11 05:54:28;;;;;;;31.98;20.60;;;;;;;;;;13107638;22;20363;-84
2023/12/11 05:59:31;;;;;;;35.33;21.30;;;;;;;;;;13128922;22;20823;-85
2023/12/11 06:04:34;;;;;;;34.20;20.70;;;;;;;;;;13107428;22;20425;-85
2023/12/11 06:09:36;;;;;;;32.70;20.50;;;;;;;;;;13106744;22;20375;-85
2023/12/11 06:14:42;;;;;;;31.05;18.65;;;;;;;;;;13104528;22;20358;-85
2023/12/11 06:19:44;;;;;;;31.67;19.13;;;;;;;;;;13105456;22;20665;-85
2023/12/11 06:24:46;;;;;;;34.60;20.05;;;;;;;;;;13105439;22;20359;-85
2023/12/11 06:29:50;;;;;;;31.02;18.42;;;;;;;;;;13107125;22;20417;-85
2023/12/11 06:34:52;;;;;;;31.67;19.73;;;;;;;;;;13106416;22;20395;-86
2023/12/11 06:39:55;;;;;;;33.42;20.27;;;;;;;;;;13129019;22;20359;-86
2023/12/11 06:44:59;;;;;;;30.98;18.45;;;;;;;;;;13084886;22;20457;-87
2023/12/11 06:50:02;;;;;;;34.00;18.60;;;;;;;;;;13109892;22;20411;-86
2023/12/11 06:55:07;;;;;;;32.95;19.13;;;;;;;;;;13107282;22;20448;-87
2023/12/11 07:00:12;;;;;;;47.40;23.83;;;;;;;;;;13133874;22;20730;-86
2023/12/11 07:05:14;;;;;;;35.03;19.47;;;;;;;;;;13107018;22;20370;-87
2023/12/11 07:10:17;;;;;;;43.88;25.08;;;;;;;;;;13111639;22;20920;-86
2023/12/11 07:15:21;;;;;;;34.85;19.65;;;;;;;;;;13108172;22;20367;-86
2023/12/11 07:20:23;;;;;;;34.97;19.85;;;;;;;;;;13112125;22;20747;-87
2023/12/11 07:25:26;;;;;;;36.08;20.98;;;;;;;;;;13110794;22;20788;-86
2023/12/11 07:30:29;;;;;;;35.60;20.85;;;;;;;;;;13111863;22;20383;-84
2023/12/11 07:35:32;;;;;;;39.28;22.90;;;;;;;;;;13132925;22;20396;-84
2023/12/11 07:40:34;;;;;;;36.90;21.15;;;;;;;;;;13111021;22;20356;-84
2023/12/11 07:45:38;;;;;;;40.50;21.97;;;;;;;;;;13111272;22;21087;-83
2023/12/11 07:50:40;;;;;;;52.00;29.73;;;;;;;;;;13111177;22;20404;-86
2023/12/11 07:55:43;;;;;;;50.37;26.93;;;;;;;;;;13109575;22;20970;-87
2023/12/11 08:00:47;;;;;;;44.03;26.17;;;;;;;;;;13111180;22;20382;-86
2023/12/11 08:05:49;;;;;;;40.75;24.38;;;;;;;;;;13111854;22;20378;-84
2023/12/11 08:10:52;;;;;;;32.33;19.90;;;;;;;;;;13110979;22;20379;-84
2023/12/11 08:15:55;;;;;;;40.37;24.70;;;;;;;;;;13109051;22;20428;-84
2023/12/11 08:20:58;;;;;;;34.70;20.20;;;;;;;;;;13131861;22;20388;-84
2023/12/11 08:26:00;;;;;;;34.55;20.27;;;;;;;;;;13086131;22;20413;-86
2023/12/11 08:31:04;;;;;;;30.60;18.20;;;;;;;;;;13066943;22;20925;-79
2023/12/11 08:36:08;;;;;;;34.25;19.23;;;;;;;;;;13045425;22;20357;-84
2023/12/11 08:41:10;;;;;;;34.67;18.42;;;;;;;;;;13046036;22;20434;-84
2023/12/11 08:46:14;;;;;;;30.50;18.13;;;;;;;;;;13040244;22;20419;-84
2023/12/11 08:51:18;;;;;;;31.92;18.30;;;;;;;;;;13040719;22;20435;-84
2023/12/11 08:56:21;;;;;;;29.98;18.52;;;;;;;;;;13043485;22;20438;-84
2023/12/11 09:01:25;;;;;;;32.22;19.65;;;;;;;;;;13065694;22;20434;-84
2023/12/11 09:06:27;;;;;;;30.58;16.85;;;;;;;;;;13044051;22;20657;-82
2023/12/11 09:11:30;;;;;;;27.85;17.73;;;;;;;;;;13044710;22;20442;-84
2023/12/11 09:16:33;;;;;;;29.33;18.07;;;;;;;;;;13043506;22;20454;-84
2023/12/11 09:21:36;;;;;;;30.05;17.52;;;;;;;;;;13045524;22;20369;-83
2023/12/11 09:26:38;;;;;;;28.88;16.75;;;;;;;;;;13040693;22;20369;-83
2023/12/11 09:31:43;;;;;;;27.17;17.03;;;;;;;;;;13065164;22;20434;-84
2023/12/11 09:36:46;;;;;;;32.43;18.13;;;;;;;;;;13042676;22;20434;-84
2023/12/11 09:41:48;;;;;;;242.02;89.65;;;;;;;;;;13037632;22;20368;-84
2023/12/11 09:46:56;;;;;;;133.10;47.10;;;;;;;;;;13038481;22;20368;-85
2023/12/11 09:51:59;;;;;;;31.23;17.65;;;;;;;;;;13036542;22;20380;-85
2023/12/11 09:57:06;;;;;;;28.73;18.07;;;;;;;;;;13037841;22;20365;-86
2023/12/11 10:02:15;;;;;;;53.75;27.67;;;;;;;;;;13041327;22;20365;-87
2023/12/11 10:07:17;;;;;;;64.73;31.40;;;;;;;;;;13062923;22;20369;-86
2023/12/11 10:12:22;;;;;;;63.13;34.30;;;;;;;;;;13037238;22;20384;-87
2023/12/11 10:17:29;;;;;;;33.53;20.13;;;;;;;;;;13040735;22;20391;-87
2023/12/11 10:22:34;;;;;;;30.83;17.85;;;;;;;;;;13042848;22;20349;-86
2023/12/11 10:27:37;;;;;;;27.87;17.00;;;;;;;;;;13045581;22;20516;-88
2023/12/11 10:32:41;;;;;;;34.00;20.55;;;;;;;;;;13041464;22;20381;-85
2023/12/11 10:37:43;;;;;;;27.57;16.33;;;;;;;;;;13041206;22;20399;-83
2023/12/11 10:42:56;;;;;;;28.00;15.50;;;;;;;;;;13039248;22;20422;-85
2023/12/11 10:48:00;;;;;;;27.03;15.97;;;;;;;;;;13035979;22;20430;-85
2023/12/11 10:53:03;;;;;;;28.43;16.93;;;;;;;;;;13038513;22;20381;-86
2023/12/11 10:58:08;;;;;;;29.08;17.13;;;;;;;;;;13040295;22;20430;-86
2023/12/11 11:03:13;;;;;;;29.27;16.08;;;;;;;;;;13039617;22;20364;-85
2023/12/11 11:08:27;;;;;;;29.67;19.10;;;;;;;;;;13038051;22;20445;-85
2023/12/11 11:13:35;;;;;;;28.40;16.35;;;;;;;;;;13059203;22;20376;-85
2023/12/11 11:19:08;;;;;;;28.13;16.90;;;;;;;;;;13040096;22;20365;-85
2023/12/11 11:40:10;;;;;;;30.73;18.20;;;;;;;;;;13012659;22;2222008;-85
2023/12/11 11:45:13;;;;;;;30.60;17.77;;;;;;;;;;12993215;22;20958;-85
2023/12/11 11:50:16;;;;;;;30.63;17.65;;;;;;;;;;13014195;22;20366;-85
2023/12/11 11:55:24;;;;;;;33.25;17.85;;;;;;;;;;12996680;22;20354;-85
2023/12/11 12:00:28;;;;;;;33.37;18.10;;;;;;;;;;12990254;22;20690;-85
2023/12/11 12:05:31;;;;;;;34.47;18.92;;;;;;;;;;12995694;22;20443;-86
2023/12/11 12:10:38;;;;;;;34.55;18.80;;;;;;;;;;12995067;22;20366;-86
2023/12/11 12:15:44;;;;;;;31.60;18.23;;;;;;;;;;12984182;22;20374;-84
2023/12/11 12:21:01;;;;;;;32.50;19.30;;;;;;;;;;12986284;22;20362;-85
2023/12/11 12:26:06;;;;;;;32.53;18.85;;;;;;;;;;12956385;22;20386;-86
2023/12/11 12:31:08;;;;;;;32.37;18.87;;;;;;;;;;12979518;22;20378;-86
2023/12/11 12:36:11;;;;;;;35.70;19.97;;;;;;;;;;12977952;22;20370;-86
2023/12/11 12:41:15;;;;;;;31.25;17.58;;;;;;;;;;12968961;22;20440;-85
2023/12/11 12:46:17;;;;;;;41.30;22.27;;;;;;;;;;12969830;22;20390;-86
2023/12/11 12:51:20;;;;;;;35.90;20.85;;;;;;;;;;12968572;22;20374;-85
2023/12/11 12:56:25;;;;;;;32.28;18.50;;;;;;;;;;12949575;22;20366;-86
2023/12/11 13:01:28;;;;;;;36.75;19.83;;;;;;;;;;12976765;22;20359;-86
2023/12/11 13:06:30;;;;;;;36.58;19.38;;;;;;;;;;12977423;22;20441;-83
2023/12/11 13:11:42;;;;;;;31.80;19.33;;;;;;;;;;12975835;22;20362;-87
2023/12/11 13:16:46;;;;;;;34.73;19.60;;;;;;;;;;12980166;22;20367;-86
2023/12/11 13:21:48;;;;;;;35.13;19.52;;;;;;;;;;12978877;22;20363;-86
2023/12/11 13:26:52;;;;;;;34.72;20.08;;;;;;;;;;12977199;22;20448;-87
2023/12/11 13:31:56;;;;;;;33.20;20.65;;;;;;;;;;12977355;22;20367;-87
2023/12/11 13:36:58;;;;;;;46.80;22.63;;;;;;;;;;12976016;22;20363;-87
2023/12/11 13:42:02;;;;;;;35.95;21.40;;;;;;;;;;12975493;22;20366;-84
2023/12/11 13:47:05;;;;;;;35.90;22.63;;;;;;;;;;12978230;22;20409;-87
2023/12/11 13:52:09;;;;;;;37.13;20.95;;;;;;;;;;12976888;22;20823;-87
2023/12/11 13:57:13;;;;;;;38.90;22.17;;;;;;;;;;12976574;22;20830;-86
2023/12/11 14:02:15;;;;;;;38.95;22.42;;;;;;;;;;12977434;22;20363;-86
2023/12/11 14:07:18;;;;;;;37.60;23.23;;;;;;;;;;12976689;22;20485;-87
2023/12/11 14:12:22;;;;;;;37.50;22.50;;;;;;;;;;12978169;22;20436;-86
2023/12/11 14:17:25;;;;;;;37.95;22.10;;;;;;;;;;12975646;22;20459;-86
2023/12/11 14:22:29;;;;;;;37.97;22.42;;;;;;;;;;12978789;22;20433;-87
2023/12/11 14:27:33;;;;;;;39.50;23.40;;;;;;;;;;12977227;22;20382;-86
2023/12/11 14:32:37;;;;;;;40.90;22.20;;;;;;;;;;12977233;22;20391;-86
2023/12/11 14:37:40;;;;;;;38.25;21.70;;;;;;;;;;12978958;22;20366;-87
2023/12/11 14:42:44;;;;;;;39.20;21.67;;;;;;;;;;12978009;22;20374;-87
2023/12/11 14:47:54;;;;;;;39.17;21.63;;;;;;;;;;12977914;22;20382;-84
2023/12/11 14:52:56;;;;;;;39.10;21.90;;;;;;;;;;12977644;22;20367;-87
2023/12/11 14:58:00;;;;;;;40.65;22.30;;;;;;;;;;12973884;22;20372;-86
2023/12/11 15:03:03;;;;;;;79.30;42.17;;;;;;;;;;12995956;22;20416;-86
2023/12/11 15:08:06;;;;;;;42.33;23.13;;;;;;;;;;12973214;22;20382;-85
2023/12/11 15:13:10;;;;;;;45.67;25.93;;;;;;;;;;12974963;22;20461;-86
2023/12/11 15:18:12;;;;;;;41.37;23.33;;;;;;;;;;12976092;22;20907;-86
2023/12/11 15:23:16;;;;;;;39.30;22.03;;;;;;;;;;12977009;22;20417;-85
2023/12/11 15:28:19;;;;;;;44.35;25.90;;;;;;;;;;12975569;22;20423;-86
2023/12/11 15:33:22;;;;;;;50.15;26.38;;;;;;;;;;12975108;22;20420;-87
2023/12/11 15:38:24;;;;;;;42.42;24.45;;;;;;;;;;12975754;22;20363;-86
2023/12/11 15:43:28;;;;;;;45.17;24.98;;;;;;;;;;12975016;22;20484;-87
2023/12/11 15:48:31;;;;;;;42.35;25.27;;;;;;;;;;12976579;22;20496;-85
2023/12/11 15:53:33;;;;;;;44.97;24.58;;;;;;;;;;12975587;22;20370;-86
2023/12/11 15:58:45;;;;;;;46.22;25.80;;;;;;;;;;12975451;22;20420;-87
2023/12/11 16:03:48;;;;;;;50.37;28.53;;;;;;;;;;12975593;22;20413;-85
2023/12/11 16:08:50;;;;;;;50.33;28.35;;;;;;;;;;12975770;22;20382;-85
2023/12/11 16:13:56;;;;;;;56.53;31.40;;;;;;;;;;12973669;22;20366;-86
2023/12/11 16:18:59;;;;;;;47.45;28.50;;;;;;;;;;12979184;22;20680;-86
2023/12/11 16:24:01;;;;;;;65.10;34.20;;;;;;;;;;12981921;22;20375;-87
2023/12/11 16:29:05;;;;;;;62.60;33.30;;;;;;;;;;12979841;22;20378;-85
2023/12/11 16:34:07;;;;;;;62.20;31.60;;;;;;;;;;12979365;22;20367;-86
2023/12/11 16:39:10;;;;;;;53.45;29.17;;;;;;;;;;12978163;22;20371;-85
2023/12/11 16:44:15;;;;;;;51.60;29.20;;;;;;;;;;12978944;22;20367;-84
2023/12/11 16:49:17;;;;;;;52.50;29.17;;;;;;;;;;12979687;22;20467;-88
2023/12/11 16:54:20;;;;;;;52.20;27.77;;;;;;;;;;12981419;22;20428;-87
2023/12/11 16:59:26;;;;;;;57.65;31.65;;;;;;;;;;12979530;22;20487;-86
2023/12/11 17:04:29;;;;;;;123.43;67.57;;;;;;;;;;12977325;22;20688;-86
2023/12/11 17:09:31;;;;;;;61.40;34.03;;;;;;;;;;12980430;22;20382;-87
2023/12/11 17:14:40;;;;;;;60.30;31.92;;;;;;;;;;12980563;22;20432;-86
2023/12/11 17:19:43;;;;;;;58.15;31.45;;;;;;;;;;12981370;22;20405;-87
2023/12/11 17:24:45;;;;;;;52.80;28.85;;;;;;;;;;12976801;22;20417;-88
2023/12/11 17:29:49;;;;;;;56.08;30.25;;;;;;;;;;12975065;22;20456;-88
2023/12/11 17:34:52;;;;;;;57.33;29.60;;;;;;;;;;12977915;22;20460;-87
2023/12/11 17:57:51;;;;;;;55.42;29.08;;;;;;;;;;12955616;22;20436;-85
2023/12/11 18:02:53;;;;;;;55.77;30.63;;;;;;;;;;12972660;22;20791;-86
2023/12/11 18:07:55;;;;;;;56.47;30.13;;;;;;;;;;12973395;22;20382;-86
2023/12/11 18:12:59;;;;;;;54.83;30.05;;;;;;;;;;12970323;22;20367;-86
2023/12/11 18:18:01;;;;;;;52.60;28.37;;;;;;;;;;12971255;22;20367;-86
2023/12/11 18:23:04;;;;;;;52.80;29.30;;;;;;;;;;12969852;22;20421;-86
2023/12/11 18:28:08;;;;;;;51.70;28.85;;;;;;;;;;12970786;22;20862;-86
2023/12/11 18:33:10;;;;;;;50.60;28.58;;;;;;;;;;12968737;22;20362;-86
2023/12/11 18:38:13;;;;;;;58.53;29.75;;;;;;;;;;12991632;22;20362;-86
2023/12/11 18:43:20;;;;;;;56.53;29.88;;;;;;;;;;12971653;22;20827;-87
2023/12/11 18:48:25;;;;;;;55.05;30.40;;;;;;;;;;12972631;22;21185;-86
2023/12/11 18:53:28;;;;;;;67.63;34.78;;;;;;;;;;12970578;22;20417;-85
2023/12/11 18:58:32;;;;;;;66.05;36.58;;;;;;;;;;12973340;22;20378;-84
2023/12/11 19:03:35;;;;;;;67.00;35.67;;;;;;;;;;12976860;22;20367;-87
2023/12/11 19:08:40;;;;;;;70.38;37.72;;;;;;;;;;12975338;22;20724;-86
2023/12/11 19:13:44;;;;;;;61.80;33.95;;;;;;;;;;12975315;22;20367;-86
2023/12/11 19:18:46;;;;;;;83.50;41.80;;;;;;;;;;12974822;22;20746;-85
2023/12/11 19:23:54;;;;;;;65.47;33.58;;;;;;;;;;12972146;22;20466;-86
2023/12/11 19:29:00;;;;;;;73.15;39.45;;;;;;;;;;12967973;22;20934;-86
2023/12/11 19:34:06;;;;;;;73.63;40.87;;;;;;;;;;12968632;22;20822;-87
2023/12/11 19:39:11;;;;;;;72.40;37.42;;;;;;;;;;12968948;22;21120;-86
2023/12/11 19:44:17;;;;;;;69.10;38.53;;;;;;;;;;12971073;22;20378;-85
2023/12/11 19:49:20;;;;;;;70.70;40.17;;;;;;;;;;12970704;22;20432;-86
2023/12/11 19:54:30;;;;;;;73.60;40.45;;;;;;;;;;12972285;22;21056;-86
2023/12/11 19:59:36;;;;;;;69.00;39.93;;;;;;;;;;12965623;22;20792;-86
2023/12/11 20:04:40;;;;;;;73.63;39.72;;;;;;;;;;12969464;22;20412;-85
2023/12/11 20:09:45;;;;;;;68.78;38.50;;;;;;;;;;12967829;22;20386;-86
2023/12/11 20:14:49;;;;;;;71.00;41.28;;;;;;;;;;12974525;22;20436;-94
2023/12/11 20:19:51;;;;;;;70.75;39.83;;;;;;;;;;12973921;22;20433;-91
2023/12/11 20:24:54;;;;;;;73.53;42.40;;;;;;;;;;12973402;22;20378;-90
2023/12/11 20:29:58;;;;;;;71.80;40.80;;;;;;;;;;12971841;22;20439;-91
2023/12/11 20:35:00;;;;;;;88.73;47.80;;;;;;;;;;12971243;22;20370;-90
2023/12/11 20:40:03;;;;;;;79.20;44.13;;;;;;;;;;12974605;22;20370;-91
2023/12/11 20:45:08;;;;;;;72.15;41.03;;;;;;;;;;12970397;22;20405;-91
2023/12/11 20:50:11;;;;;;;74.40;44.25;;;;;;;;;;12971772;22;20430;-91
2023/12/11 20:55:14;;;;;;;77.60;44.97;;;;;;;;;;12970193;22;20404;-90
2023/12/11 21:00:18;;;;;;;77.22;44.55;;;;;;;;;;12974448;22;20406;-90
2023/12/11 21:05:21;;;;;;;80.53;47.38;;;;;;;;;;12986642;22;20415;-92
2023/12/11 21:10:24;;;;;;;72.90;44.93;;;;;;;;;;12970086;22;20471;-92
2023/12/11 21:15:27;;;;;;;70.40;44.13;;;;;;;;;;12969745;22;20717;-91
2023/12/11 21:20:31;;;;;;;75.75;42.17;;;;;;;;;;12973937;22;20375;-91
2023/12/11 21:25:33;;;;;;;67.97;41.33;;;;;;;;;;12971011;22;20426;-91
2023/12/11 21:30:37;;;;;;;71.70;42.28;;;;;;;;;;12972786;22;20408;-91
2023/12/11 21:35:39;;;;;;;68.23;40.83;;;;;;;;;;12975575;22;20379;-91
2023/12/11 21:40:42;;;;;;;63.13;38.75;;;;;;;;;;12975950;22;20432;-91
2023/12/11 21:45:45;;;;;;;63.67;38.88;;;;;;;;;;12973272;22;20382;-91
2023/12/11 21:50:48;;;;;;;69.50;40.10;;;;;;;;;;12974917;22;20377;-91
2023/12/11 21:55:50;;;;;;;64.93;38.80;;;;;;;;;;12975250;22;20723;-92
2023/12/11 22:00:55;;;;;;;64.30;39.15;;;;;;;;;;12975855;22;20448;-91
2023/12/11 22:05:57;;;;;;;68.70;40.50;;;;;;;;;;12975923;22;20388;-91
2023/12/11 22:10:59;;;;;;;70.47;40.88;;;;;;;;;;12974888;22;20381;-91
2023/12/11 22:16:04;;;;;;;74.55;42.40;;;;;;;;;;12967573;22;20412;-91
2023/12/11 22:21:08;;;;;;;69.03;41.80;;;;;;;;;;12977571;22;20471;-91
2023/12/11 22:26:10;;;;;;;69.15;41.45;;;;;;;;;;12998524;22;20405;-91
2023/12/11 22:31:14;;;;;;;66.80;41.17;;;;;;;;;;12974950;22;20386;-90
2023/12/11 22:36:21;;;;;;;72.20;42.67;;;;;;;;;;12974207;22;20423;-89
2023/12/11 22:41:26;;;;;;;74.25;42.50;;;;;;;;;;12971113;22;20400;-89
2023/12/11 22:46:30;;;;;;;76.25;43.63;;;;;;;;;;12980804;22;20370;-89
2023/12/11 22:51:32;;;;;;;75.65;44.08;;;;;;;;;;13003123;22;20902;-89
2023/12/11 22:56:34;;;;;;;73.20;43.28;;;;;;;;;;12981291;22;20449;-87
2023/12/11 23:01:38;;;;;;;71.60;43.58;;;;;;;;;;12982164;22;21070;-89
2023/12/11 23:06:43;;;;;;;74.95;41.90;;;;;;;;;;12981309;22;20376;-89
2023/12/11 23:11:46;;;;;;;71.82;42.13;;;;;;;;;;13002776;22;20418;-86
2023/12/11 23:16:49;;;;;;;71.40;41.90;;;;;;;;;;12979132;22;20358;-89
2023/12/11 23:21:52;;;;;;;66.90;40.85;;;;;;;;;;12980902;22;20392;-89
2023/12/11 23:26:54;;;;;;;73.13;41.27;;;;;;;;;;12980292;22;20888;-89
2023/12/11 23:31:58;;;;;;;72.72;40.88;;;;;;;;;;12979766;22;20405;-90
2023/12/11 23:37:00;;;;;;;69.07;40.07;;;;;;;;;;12979823;22;20390;-89
2023/12/11 23:42:03;;;;;;;64.60;39.93;;;;;;;;;;12981169;22;20428;-88
2023/12/11 23:47:07;;;;;;;64.88;38.15;;;;;;;;;;12954275;22;21563;-89
2023/12/11 23:52:09;;;;;;;63.28;37.60;;;;;;;;;;12982263;22;20396;-89
2023/12/11 23:57:11;;;;;;;66.22;38.63;;;;;;;;;;12981356;22;20420;-89
